createdAt,value
2023-04-02T00:01:01.673Z,5.20
2023-04-02T00:03:42.249Z,5.23
2023-04-02T00:06:30.379Z,5.33
2023-04-02T00:08:59.493Z,5.80
2023-04-02T00:11:29.720Z,5.83
2023-04-02T00:13:56.029Z,6.20
2023-04-02T00:16:23.768Z,5.63
2023-04-02T00:18:51.205Z,5.60
2023-04-02T00:21:22.461Z,5.10
2023-04-02T00:23:48.740Z,4.57
2023-04-02T00:26:32.787Z,4.47
2023-04-02T00:29:03.206Z,4.87
2023-04-02T00:31:30.738Z,4.10
2023-04-02T00:33:58.278Z,4.27
2023-04-02T00:36:26.582Z,4.60
2023-04-02T00:38:53.766Z,4.33
2023-04-02T00:41:23.774Z,5.03
2023-04-02T00:43:51.354Z,4.63
2023-04-02T00:46:22.052Z,4.60
2023-04-02T00:48:51.157Z,5.33
2023-04-02T00:51:37.415Z,5.40
2023-04-02T00:54:05.784Z,5.27
2023-04-02T00:56:33.709Z,5.00
2023-04-02T00:59:00.240Z,4.93
2023-04-02T01:01:28.436Z,5.27
2023-04-02T01:03:58.182Z,5.40
2023-04-02T01:06:29.629Z,5.20
2023-04-02T01:09:02.050Z,4.40
2023-04-02T01:11:44.007Z,5.00
2023-04-02T01:14:19.391Z,4.33
2023-04-02T01:16:53.971Z,4.67
2023-04-02T01:19:39.830Z,4.63
2023-04-02T01:22:22.091Z,4.90
2023-04-02T01:24:48.603Z,4.30
2023-04-02T01:27:20.661Z,4.50
2023-04-02T01:29:49.576Z,4.60
2023-04-02T01:32:17.513Z,4.47
2023-04-02T01:34:46.346Z,4.73
2023-04-02T01:37:24.644Z,4.73
2023-04-02T01:40:05.915Z,4.37
2023-04-02T01:42:36.227Z,3.97
2023-04-02T01:45:09.014Z,4.30
2023-04-02T01:47:35.348Z,4.50
2023-04-02T01:50:12.943Z,4.33
2023-04-02T01:52:41.128Z,4.73
2023-04-02T01:55:08.442Z,4.70
2023-04-02T01:57:35.004Z,4.40
2023-04-02T02:00:13.483Z,4.30
2023-04-02T02:02:40.545Z,4.33
2023-04-02T02:05:13.438Z,4.90
2023-04-02T02:07:40.943Z,4.23
2023-04-02T02:10:08.362Z,4.07
2023-04-02T02:12:34.621Z,3.93
2023-04-02T02:15:01.179Z,3.80
2023-04-02T02:17:30.522Z,3.90
2023-04-02T02:19:58.209Z,4.07
2023-04-02T02:22:30.324Z,3.80
2023-04-02T02:24:58.275Z,3.33
2023-04-02T02:27:24.593Z,2.90
2023-04-02T02:30:17.330Z,2.87
2023-04-02T02:32:47.925Z,3.00
2023-04-02T02:35:32.266Z,2.83
2023-04-02T02:38:17.185Z,2.60
2023-04-02T02:40:46.114Z,3.03
2023-04-02T02:43:13.946Z,3.00
2023-04-02T02:45:41.393Z,3.13
2023-04-02T02:48:11.912Z,3.37
2023-04-02T02:50:38.666Z,3.07
2023-04-02T02:53:11.795Z,3.00
2023-04-02T02:55:38.628Z,3.10
2023-04-02T02:58:23.775Z,2.60
2023-04-02T03:00:50.144Z,2.70
2023-04-02T03:03:18.957Z,2.60
2023-04-02T03:05:49.794Z,2.40
2023-04-02T03:08:22.183Z,3.03
2023-04-02T03:10:52.962Z,2.50
2023-04-02T03:13:24.427Z,2.60
2023-04-02T03:15:57.179Z,2.53
2023-04-02T03:18:43.949Z,2.80
2023-04-02T03:21:28.268Z,2.57
2023-04-02T03:24:00.646Z,2.47
2023-04-02T03:26:29.986Z,2.30
2023-04-02T03:28:59.302Z,2.43
2023-04-02T03:31:36.573Z,2.40
2023-04-02T03:34:13.684Z,2.70
2023-04-02T03:36:43.636Z,2.87
2023-04-02T03:39:14.537Z,2.53
2023-04-02T03:41:47.578Z,2.77
2023-04-02T03:44:24.004Z,2.80
2023-04-02T03:46:57.377Z,2.53
2023-04-02T03:49:42.503Z,3.07
2023-04-02T03:52:13.531Z,2.80
2023-04-02T03:54:41.105Z,3.10
2023-04-02T03:57:33.040Z,2.83
2023-04-02T04:00:02.855Z,2.93
2023-04-02T04:02:39.933Z,2.90
2023-04-02T04:05:07.723Z,3.23
2023-04-02T04:07:36.714Z,3.13
2023-04-02T04:10:04.468Z,3.00
2023-04-02T04:12:32.909Z,3.00
2023-04-02T04:15:06.639Z,2.60
2023-04-02T04:17:34.630Z,3.10
2023-04-02T04:20:00.872Z,3.00
2023-04-02T04:22:33.776Z,3.00
2023-04-02T04:25:01.483Z,3.13
2023-04-02T04:27:33.655Z,3.00
2023-04-02T04:30:14.793Z,2.60
2023-04-02T04:32:50.138Z,2.63
2023-04-02T04:35:28.537Z,2.93
2023-04-02T04:38:07.668Z,2.70
2023-04-02T04:40:36.184Z,2.83
2023-04-02T04:43:05.472Z,3.20
2023-04-02T04:45:43.401Z,3.30
2023-04-02T04:48:16.165Z,2.90
2023-04-02T04:50:47.854Z,2.60
2023-04-02T04:53:16.185Z,2.93
2023-04-02T04:55:46.971Z,2.40
2023-04-02T04:58:23.953Z,2.93
2023-04-02T05:01:00.145Z,2.50
2023-04-02T05:03:46.656Z,2.53
2023-04-02T05:06:21.255Z,2.30
2023-04-02T05:08:48.341Z,2.63
2023-04-02T05:11:26.404Z,2.90
2023-04-02T05:13:54.309Z,2.37
2023-04-02T05:16:42.231Z,3.00
2023-04-02T05:19:08.449Z,2.60
2023-04-02T05:21:43.552Z,3.10
2023-04-02T05:24:28.543Z,2.70
2023-04-02T05:26:58.444Z,2.90
2023-04-02T05:29:31.698Z,2.67
2023-04-02T05:32:07.201Z,2.70
2023-04-02T05:34:34.683Z,2.90
2023-04-02T05:37:01.907Z,2.47
2023-04-02T05:39:28.303Z,3.03
2023-04-02T05:42:11.129Z,3.00
2023-04-02T05:44:41.185Z,3.07
2023-04-02T05:47:13.992Z,2.87
2023-04-02T05:49:42.737Z,2.73
2023-04-02T05:52:16.799Z,3.10
2023-04-02T05:54:43.050Z,2.80
2023-04-02T05:57:13.721Z,2.73
2023-04-02T05:59:43.306Z,2.50
2023-04-02T06:02:53.474Z,2.47
2023-04-02T06:05:22.930Z,2.37
2023-04-02T06:07:58.651Z,2.33
2023-04-02T06:10:27.422Z,2.70
2023-04-02T06:13:03.116Z,2.20
2023-04-02T06:15:30.784Z,2.33
2023-04-02T06:18:03.313Z,2.40
2023-04-02T06:20:29.655Z,2.47
2023-04-02T06:22:59.438Z,2.20
2023-04-02T06:25:25.778Z,2.23
2023-04-02T06:27:52.599Z,2.33
2023-04-02T06:30:21.308Z,2.40
2023-04-02T06:32:47.643Z,2.27
2023-04-02T06:35:14.486Z,2.47
2023-04-02T06:37:43.281Z,2.27
2023-04-02T06:40:27.653Z,1.83
2023-04-02T06:42:57.458Z,1.67
2023-04-02T06:45:25.730Z,2.10
2023-04-02T06:47:52.317Z,2.20
2023-04-02T06:50:24.874Z,2.17
2023-04-02T06:52:56.293Z,2.20
2023-04-02T06:55:37.385Z,1.53
2023-04-02T06:58:03.975Z,1.83
2023-04-02T07:00:36.260Z,1.67
2023-04-02T07:03:05.078Z,2.00
2023-04-02T07:05:31.620Z,1.80
2023-04-02T07:07:57.904Z,1.73
2023-04-02T07:10:24.208Z,1.80
2023-04-02T07:12:50.600Z,2.03
2023-04-02T07:15:19.252Z,2.00
2023-04-02T07:17:46.334Z,1.60
2023-04-02T07:20:23.893Z,1.70
2023-04-02T07:22:50.236Z,2.03
2023-04-02T07:25:16.494Z,1.43
2023-04-02T07:27:42.757Z,1.60
2023-04-02T07:30:09.431Z,1.60
2023-04-02T07:32:36.591Z,1.80
2023-04-02T07:35:03.200Z,1.80
2023-04-02T07:37:29.518Z,1.83
2023-04-02T07:39:55.793Z,1.70
2023-04-02T07:42:22.053Z,1.90
2023-04-02T07:44:48.322Z,2.10
2023-04-02T07:47:15.906Z,2.00
2023-04-02T07:49:42.169Z,1.33
2023-04-02T07:52:08.545Z,1.80
2023-04-02T07:54:35.955Z,1.60
2023-04-02T07:57:02.322Z,1.70
2023-04-02T07:59:28.730Z,1.47
2023-04-02T08:01:55.020Z,1.73
2023-04-02T08:04:22.557Z,1.70
2023-04-02T08:06:49.513Z,1.63
2023-04-02T08:09:16.444Z,1.67
2023-04-02T08:11:43.241Z,1.50
2023-04-02T08:14:10.031Z,1.60
2023-04-02T08:16:46.886Z,1.73
2023-04-02T08:19:13.342Z,1.80
2023-04-02T08:21:39.620Z,1.60
2023-04-02T08:24:05.948Z,1.60
2023-04-02T08:26:32.288Z,1.87
2023-04-02T08:28:58.597Z,1.67
2023-04-02T08:31:24.931Z,1.60
2023-04-02T08:33:51.282Z,1.60
2023-04-02T08:36:18.236Z,1.80
2023-04-02T08:38:44.689Z,1.90
2023-04-02T08:41:19.805Z,1.77
2023-04-02T08:43:54.234Z,1.50
2023-04-02T08:46:23.305Z,1.83
2023-04-02T08:48:52.903Z,1.50
2023-04-02T08:51:23.114Z,2.20
2023-04-02T08:53:50.393Z,1.80
2023-04-02T08:56:25.973Z,1.60
2023-04-02T08:59:00.876Z,2.13
2023-04-02T09:01:31.548Z,1.87
2023-04-02T09:03:59.070Z,1.90
2023-04-02T09:06:26.153Z,1.90
2023-04-02T09:08:53.588Z,1.87
2023-04-02T09:11:24.476Z,2.10
2023-04-02T09:13:54.474Z,2.00
2023-04-02T09:16:25.523Z,1.87
2023-04-02T09:18:52.794Z,1.73
2023-04-02T09:21:21.909Z,2.20
2023-04-02T09:23:48.446Z,1.87
2023-04-02T09:26:22.807Z,2.40
2023-04-02T09:28:51.609Z,1.67
2023-04-02T09:31:26.830Z,1.80
2023-04-02T09:33:54.732Z,1.90
2023-04-02T09:36:28.121Z,1.60
2023-04-02T09:39:06.456Z,1.80
2023-04-02T09:41:36.674Z,1.70
2023-04-02T09:44:21.236Z,1.90
2023-04-02T09:46:59.992Z,1.90
2023-04-02T09:49:31.571Z,2.10
2023-04-02T09:52:07.178Z,1.50
2023-04-02T09:54:33.620Z,1.43
2023-04-02T09:57:01.399Z,1.40
2023-04-02T09:59:27.853Z,1.47
2023-04-02T10:01:54.111Z,1.93
2023-04-02T10:04:39.371Z,1.97
2023-04-02T10:07:06.541Z,1.60
2023-04-02T10:09:34.000Z,1.30
2023-04-02T10:12:01.241Z,1.27
2023-04-02T10:14:32.958Z,1.17
2023-04-02T10:17:19.942Z,1.57
2023-04-02T10:19:48.727Z,1.40
2023-04-02T10:22:17.035Z,1.30
2023-04-02T10:24:43.756Z,1.20
2023-04-02T10:27:10.068Z,1.20
2023-04-02T10:29:36.416Z,1.30
2023-04-02T10:32:06.681Z,1.57
2023-04-02T10:34:43.952Z,1.23
2023-04-02T10:37:45.794Z,1.60
2023-04-02T10:40:17.850Z,1.60
2023-04-02T10:42:46.853Z,1.87
2023-04-02T10:45:19.821Z,1.30
2023-04-02T10:47:50.671Z,1.50
2023-04-02T10:50:22.776Z,1.40
2023-04-02T10:52:52.045Z,1.70
2023-04-02T10:55:20.477Z,1.70
2023-04-02T10:57:47.120Z,1.30
2023-04-02T11:00:16.669Z,1.60
2023-04-02T11:02:48.814Z,1.77
2023-04-02T11:05:37.080Z,1.37
2023-04-02T11:08:06.880Z,1.50
2023-04-02T11:10:35.324Z,1.43
2023-04-02T11:13:05.724Z,2.00
2023-04-02T11:15:32.268Z,2.40
2023-04-02T11:17:58.587Z,2.83
2023-04-02T11:20:43.921Z,2.07
2023-04-02T11:23:14.804Z,2.10
2023-04-02T11:25:42.036Z,1.80
2023-04-02T11:28:28.060Z,1.50
2023-04-02T11:30:55.300Z,1.63
2023-04-02T11:33:34.146Z,1.50
2023-04-02T11:36:03.414Z,1.80
2023-04-02T11:38:45.001Z,1.57
2023-04-02T11:41:11.424Z,1.90
2023-04-02T11:43:37.738Z,1.40
2023-04-02T11:46:16.482Z,1.50
2023-04-02T11:48:43.470Z,1.60
2023-04-02T11:51:15.842Z,1.80
2023-04-02T11:53:42.732Z,1.60
2023-04-02T11:56:29.245Z,2.17
2023-04-02T11:59:04.401Z,2.00
2023-04-02T12:01:33.893Z,2.13
2023-04-02T12:04:06.264Z,1.60
2023-04-02T12:06:39.664Z,1.70
2023-04-02T12:09:26.682Z,1.97
2023-04-02T12:12:00.541Z,1.80
2023-04-02T12:14:32.960Z,1.77
2023-04-02T12:16:59.757Z,1.80
2023-04-02T12:19:27.151Z,2.07
2023-04-02T12:21:53.582Z,2.10
2023-04-02T12:24:21.324Z,1.90
2023-04-02T12:26:47.887Z,2.03
2023-04-02T12:29:15.466Z,1.67
2023-04-02T12:31:46.408Z,1.43
2023-04-02T12:34:17.074Z,1.80
2023-04-02T12:36:55.651Z,1.77
2023-04-02T12:39:22.086Z,1.83
2023-04-02T12:41:48.710Z,1.80
2023-04-02T12:44:19.002Z,1.80
2023-04-02T12:46:45.985Z,1.73
2023-04-02T12:49:12.437Z,1.50
2023-04-02T12:51:39.086Z,1.60
2023-04-02T12:54:05.537Z,1.47
2023-04-02T12:56:31.805Z,1.83
2023-04-02T12:58:59.571Z,1.70
2023-04-02T13:01:28.310Z,1.60
2023-04-02T13:04:08.764Z,1.60
2023-04-02T13:06:36.004Z,1.83
2023-04-02T13:09:04.058Z,1.40
2023-04-02T13:11:37.723Z,1.90
2023-04-02T13:14:05.786Z,1.50
2023-04-02T13:16:39.819Z,1.40
2023-04-02T13:19:12.410Z,1.57
2023-04-02T13:21:38.819Z,1.50
2023-04-02T13:24:05.268Z,1.40
2023-04-02T13:26:31.583Z,1.57
2023-04-02T13:29:00.992Z,1.03
2023-04-02T13:31:28.179Z,1.50
2023-04-02T13:33:54.568Z,1.27
2023-04-02T13:36:20.882Z,1.37
2023-04-02T13:38:47.270Z,1.30
2023-04-02T13:41:34.855Z,1.87
2023-04-02T13:44:02.232Z,1.47
2023-04-02T13:46:29.921Z,1.63
2023-04-02T13:48:57.007Z,1.43
2023-04-02T13:51:37.193Z,1.20
2023-04-02T13:54:06.151Z,1.30
2023-04-02T13:56:33.328Z,0.90
2023-04-02T13:58:59.628Z,1.40
2023-04-02T14:01:26.209Z,1.47
2023-04-02T14:03:53.769Z,1.10
2023-04-02T14:06:21.054Z,1.57
2023-04-02T14:09:04.256Z,1.40
2023-04-02T14:11:39.246Z,1.60
2023-04-02T14:14:24.450Z,1.17
2023-04-02T14:16:57.012Z,1.00
2023-04-02T14:19:23.489Z,1.67
2023-04-02T14:21:56.235Z,1.20
2023-04-02T14:24:36.235Z,1.40
2023-04-02T14:27:07.941Z,1.20
2023-04-02T14:29:45.504Z,1.37
2023-04-02T14:32:24.642Z,1.30
2023-04-02T14:35:02.972Z,1.30
2023-04-02T14:37:48.164Z,1.47
2023-04-02T14:40:19.403Z,1.57
2023-04-02T14:42:50.880Z,1.40
2023-04-02T14:45:22.874Z,1.30
2023-04-02T14:47:52.980Z,1.43
2023-04-02T14:50:27.942Z,1.40
2023-04-02T14:52:56.756Z,1.10
2023-04-02T14:55:37.996Z,1.20
2023-04-02T14:58:08.908Z,1.20
2023-04-02T15:00:37.605Z,1.20
2023-04-02T15:03:09.081Z,1.40
2023-04-02T15:05:49.024Z,1.30
2023-04-02T15:08:17.979Z,1.70
2023-04-02T15:11:05.735Z,1.60
2023-04-02T15:13:43.947Z,1.60
2023-04-02T15:16:13.541Z,1.60
2023-04-02T15:18:40.261Z,1.40
2023-04-02T15:21:23.245Z,1.47
2023-04-02T15:23:55.368Z,1.50
2023-04-02T15:26:31.367Z,1.30
2023-04-02T15:29:22.273Z,1.20
2023-04-02T15:31:58.519Z,1.23
2023-04-02T15:34:30.221Z,1.43
2023-04-02T15:37:01.432Z,1.43
2023-04-02T15:39:35.947Z,1.47
2023-04-02T15:42:25.581Z,1.40
2023-04-02T15:44:51.895Z,1.57
2023-04-02T15:47:22.846Z,1.30
2023-04-02T15:49:58.197Z,1.13
2023-04-02T15:52:34.571Z,1.70
2023-04-02T15:55:33.548Z,1.40
2023-04-02T15:58:05.646Z,1.27
2023-04-02T16:00:34.265Z,1.40
2023-04-02T16:03:20.521Z,1.20
2023-04-02T16:06:05.865Z,1.47
2023-04-02T16:08:32.328Z,1.40
2023-04-02T16:10:58.775Z,1.30
2023-04-02T16:13:28.493Z,1.70
2023-04-02T16:16:13.094Z,1.37
2023-04-02T16:18:58.244Z,1.40
2023-04-02T16:21:28.727Z,1.40
2023-04-02T16:23:55.546Z,1.43
2023-04-02T16:26:27.467Z,1.20
2023-04-02T16:29:12.862Z,1.37
2023-04-02T16:31:45.856Z,1.30
2023-04-02T16:34:31.112Z,1.40
2023-04-02T16:37:01.676Z,1.40
2023-04-02T16:39:34.201Z,1.30
2023-04-02T16:42:00.436Z,1.70
2023-04-02T16:44:31.936Z,1.60
2023-04-02T16:47:12.960Z,1.67
2023-04-02T16:49:57.435Z,1.80
2023-04-02T16:52:42.358Z,1.50
2023-04-02T16:55:25.645Z,1.20
2023-04-02T16:58:01.061Z,1.80
2023-04-02T17:00:33.232Z,1.50
2023-04-02T17:03:15.982Z,1.43
2023-04-02T17:05:51.410Z,1.67
2023-04-02T17:08:25.068Z,1.23
2023-04-02T17:10:57.233Z,1.40
2023-04-02T17:13:38.673Z,1.70
2023-04-02T17:16:05.027Z,1.77
2023-04-02T17:18:32.762Z,1.63
2023-04-02T17:21:03.089Z,1.63
2023-04-02T17:23:31.330Z,1.50
2023-04-02T17:26:00.579Z,1.63
2023-04-02T17:28:29.533Z,1.97
2023-04-02T17:30:57.646Z,1.70
2023-04-02T17:33:26.862Z,1.57
2023-04-02T17:36:02.549Z,1.80
2023-04-02T17:38:50.981Z,1.60
2023-04-02T17:41:40.362Z,1.50
2023-04-02T17:44:26.803Z,1.50
2023-04-02T17:47:05.133Z,1.50
2023-04-02T17:49:40.782Z,1.97
2023-04-02T17:52:14.378Z,1.67
2023-04-02T17:54:47.677Z,1.67
2023-04-02T17:57:20.104Z,1.67
2023-04-02T17:59:55.602Z,2.07
2023-04-02T18:02:40.932Z,2.27
2023-04-02T18:05:07.188Z,1.90
2023-04-02T18:07:44.880Z,1.93
2023-04-02T18:10:35.361Z,2.20
2023-04-02T18:13:12.484Z,1.97
2023-04-02T18:15:42.121Z,2.30
2023-04-02T18:18:26.840Z,2.17
2023-04-02T18:20:59.723Z,1.63
2023-04-02T18:23:54.225Z,1.87
2023-04-02T18:26:39.110Z,2.30
2023-04-02T18:29:24.110Z,1.73
2023-04-02T18:31:57.435Z,1.60
2023-04-02T18:34:34.856Z,2.00
2023-04-02T18:37:07.020Z,1.80
2023-04-02T18:39:39.307Z,2.20
2023-04-02T18:42:12.419Z,1.97
2023-04-02T18:44:58.347Z,2.00
2023-04-02T18:47:29.881Z,2.10
2023-04-02T18:50:15.877Z,2.43
2023-04-02T18:52:42.442Z,2.10
2023-04-02T18:55:15.795Z,2.57
2023-04-02T18:57:42.939Z,1.93
2023-04-02T19:00:19.776Z,2.13
2023-04-02T19:03:09.187Z,1.97
2023-04-02T19:05:36.021Z,2.07
2023-04-02T19:08:06.070Z,2.47
2023-04-02T19:10:37.408Z,2.30
2023-04-02T19:13:07.838Z,1.77
2023-04-02T19:16:00.743Z,2.60
2023-04-02T19:18:48.993Z,2.03
2023-04-02T19:21:15.697Z,2.40
2023-04-02T19:23:45.072Z,2.23
2023-04-02T19:26:15.416Z,1.93
2023-04-02T19:28:57.971Z,1.90
2023-04-02T19:31:24.277Z,2.30
2023-04-02T19:33:56.568Z,2.20
2023-04-02T19:36:29.104Z,2.10
2023-04-02T19:39:10.351Z,2.07
2023-04-02T19:41:43.879Z,2.13
2023-04-02T19:44:11.910Z,1.60
2023-04-02T19:46:39.622Z,2.37
2023-04-02T19:49:06.276Z,1.70
2023-04-02T19:51:33.661Z,2.57
2023-04-02T19:54:00.437Z,2.90
2023-04-02T19:56:27.855Z,2.50
2023-04-02T19:58:54.625Z,2.20
2023-04-02T20:01:22.154Z,2.17
2023-04-02T20:03:48.476Z,1.97
2023-04-02T20:06:15.211Z,1.83
2023-04-02T20:08:41.540Z,1.77
2023-04-02T20:11:07.884Z,2.70
2023-04-02T20:13:34.650Z,2.60
2023-04-02T20:16:01.984Z,2.13
2023-04-02T20:18:28.808Z,2.33
2023-04-02T20:20:55.193Z,1.90
2023-04-02T20:23:21.512Z,2.23
2023-04-02T20:25:52.687Z,2.00
2023-04-02T20:28:19.733Z,2.17
2023-04-02T20:30:46.513Z,2.23
2023-04-02T20:33:12.972Z,1.93
2023-04-02T20:35:39.557Z,1.80
2023-04-02T20:38:07.977Z,2.90
2023-04-02T20:40:34.662Z,2.40
2023-04-02T20:43:01.121Z,1.70
2023-04-02T20:45:29.202Z,2.17
2023-04-02T20:47:55.758Z,2.03
2023-04-02T20:50:22.046Z,2.00
2023-04-02T20:52:48.794Z,2.20
2023-04-02T20:55:15.486Z,1.97
2023-04-02T20:57:41.901Z,1.80
2023-04-02T21:00:09.797Z,2.27
2023-04-02T21:02:36.133Z,2.10
2023-04-02T21:05:02.433Z,2.07
2023-04-02T21:07:28.809Z,1.90
2023-04-02T21:09:55.532Z,2.33
2023-04-02T21:12:22.060Z,2.03
2023-04-02T21:14:48.637Z,2.30
2023-04-02T21:17:16.010Z,1.80
2023-04-02T21:19:42.439Z,2.60
2023-04-02T21:22:08.678Z,2.20
2023-04-02T21:24:34.985Z,2.27
2023-04-02T21:27:01.304Z,2.20
2023-04-02T21:29:27.612Z,2.00
2023-04-02T21:31:54.034Z,1.73
2023-04-02T21:34:20.489Z,1.60
2023-04-02T21:36:48.262Z,2.07
2023-04-02T21:39:18.968Z,2.00
2023-04-02T21:41:46.825Z,1.90
2023-04-02T21:44:14.356Z,2.07
2023-04-02T21:46:42.445Z,1.93
2023-04-02T21:49:09.614Z,2.10
2023-04-02T21:51:36.859Z,2.00
2023-04-02T21:54:03.679Z,1.60
2023-04-02T21:56:30.927Z,1.90
2023-04-02T21:58:58.572Z,2.13
2023-04-02T22:01:28.034Z,1.90
2023-04-02T22:03:59.159Z,2.07
2023-04-02T22:06:26.500Z,2.10
2023-04-02T22:08:59.813Z,1.87
2023-04-02T22:11:27.602Z,1.80
2023-04-02T22:13:54.028Z,1.83
2023-04-02T22:16:21.672Z,1.83
2023-04-02T22:18:48.621Z,1.87
2023-04-02T22:21:15.363Z,1.87
2023-04-02T22:23:42.253Z,1.90
2023-04-02T22:26:14.119Z,1.97
2023-04-02T22:28:40.594Z,1.90
2023-04-02T22:31:12.365Z,1.87
2023-04-02T22:33:39.023Z,1.67
2023-04-02T22:36:05.792Z,1.80
2023-04-02T22:38:32.583Z,1.80
2023-04-02T22:41:09.416Z,2.07
2023-04-02T22:43:36.269Z,1.80
2023-04-02T22:46:03.287Z,1.93
2023-04-02T22:48:29.606Z,1.73
2023-04-02T22:50:55.888Z,1.80
2023-04-02T22:53:22.234Z,1.90
2023-04-02T22:55:48.872Z,1.90
2023-04-02T22:58:15.330Z,2.07
2023-04-02T23:00:41.979Z,2.03
2023-04-02T23:03:08.749Z,2.33
2023-04-02T23:05:35.073Z,1.67
2023-04-02T23:08:01.573Z,1.60
2023-04-02T23:10:29.010Z,1.63
2023-04-02T23:12:57.137Z,2.00
2023-04-02T23:15:23.405Z,2.00
2023-04-02T23:17:49.707Z,2.23
2023-04-02T23:20:16.349Z,1.90
2023-04-02T23:22:42.596Z,2.03
2023-04-02T23:25:08.889Z,2.20
2023-04-02T23:27:35.249Z,2.23
2023-04-02T23:30:01.517Z,1.90
2023-04-02T23:32:27.830Z,2.00
2023-04-02T23:34:54.128Z,1.90
2023-04-02T23:37:20.422Z,1.57
2023-04-02T23:39:46.652Z,1.80
2023-04-02T23:42:12.976Z,1.80
2023-04-02T23:44:39.206Z,1.80
2023-04-02T23:47:05.824Z,1.83
2023-04-02T23:49:32.244Z,1.97
2023-04-02T23:51:59.193Z,1.83
2023-04-02T23:54:25.621Z,1.83
2023-04-02T23:56:51.883Z,1.87
2023-04-02T23:59:18.175Z,1.83
